Portada
METAR-TAF:

Aeropuertos :

Vitória, Espírito Santo, Brasil

latitud: 20-16S, longitud: 040-17W, altitud: 4 m

Observación

El informe se hizo hace 1 hora y 5 minutos, a las 14:00 UTC
Viento 4 kt del oeste
Temperatura 23°C
Humedad 57%
Presión 1024 hPa
Visibilidad 10 km o más
Escasas nubes a una altura de 3000 ft
Cielo nuboso a una altura de 5000 ft

METAR: SBVT 251400Z 28004KT 9999 FEW030 BKN050 23/14 Q1024

Hora: 12:05 (15:05 UTC)

Pronóstico

El informe se hizo hace 5 horas y 5 minutos, a las 10:00 UTC
Pronóstico válido del 25 a las 12 UTC al 26 a las 12 UTC
Viento 10 kt del sur-sureste
Visibilidad: 7000 m
Nubes dispersas a una altura de 3000 ft
Evolucionando progresivamente
del 26 a las 00 UTC al 26 a las 02 UTC
Viento 5 kt del suroeste

TAF: SBVT 251000Z 2512/2612 16010KT 7000 SCT030 TX25/2515Z TN18/2607Z BECMG 2600/2602 22005KT RMK PEA

METAR-TAF

Observaciones y pronósticos meteorológicos de más de 4000 aeropuertos (mensajes METAR y TAF).

Los puntos amarillos y rojos representan las estaciones disponibles.

Ponga el ratón en el punto deseado para ver el nombre de la estación.

Haga clic para ver las observaciones y los pronósticos meteorológicos.

Para cambiar el mapa : haga clic en los botones verdes con una cruz de color negro para hacer un zoom, en el botón verde con un guión para alejar o en las flechas verdes para mapas adyacentes.


METAR-TAF: